Time;durP1;ratioP1;P1;durP2;ratioP2;P2;SDS_P1;SDS_P2;PMS_P1;PMS_P2;Temp;Humidity;BMP_temperature;BMP_pressure;BME280_temperature;BME280_humidity;BME280_pressure;Samples;Min_cycle;Max_cycle;Signal;HPM_P1;HPM_P2
2022/06/26 00:00:19;;;;;;;2.93;2.43;;;;;;;22.35;54.33;98427.59;6954225;28;20193;-78
2022/06/26 00:03:41;;;;;;;2.43;2.20;;;;;;;22.11;54.41;98429.47;6974402;28;20224;-78
2022/06/26 00:07:03;;;;;;;2.50;1.97;;;;;;;22.67;53.33;98432.50;6974401;28;20261;-78
2022/06/26 00:10:25;;;;;;;3.40;2.50;;;;;;;22.58;53.63;98424.09;6974457;28;20583;-79
2022/06/26 00:13:48;;;;;;;2.50;2.27;;;;;;;22.26;54.38;98409.28;6978115;28;20384;-79
2022/06/26 00:17:10;;;;;;;2.07;1.97;;;;;;;21.69;55.47;98429.25;6975522;28;20210;-78
2022/06/26 00:20:31;;;;;;;2.97;2.30;;;;;;;21.47;56.77;98437.03;6973201;28;20214;-78
2022/06/26 00:23:53;;;;;;;2.23;2.03;;;;;;;21.82;55.94;98428.59;6974789;28;20226;-78
2022/06/26 00:27:15;;;;;;;2.30;2.10;;;;;;;22.14;54.90;98425.31;6977291;28;20208;-79
2022/06/26 00:30:38;;;;;;;2.30;2.00;;;;;;;22.37;54.11;98414.38;6978509;28;20204;-79
2022/06/26 00:33:59;;;;;;;3.33;2.00;;;;;;;22.55;53.92;98446.63;6976642;28;20301;-78
2022/06/26 00:37:21;;;;;;;2.50;2.30;;;;;;;22.53;54.19;98451.59;6974713;28;20205;-78
2022/06/26 00:40:43;;;;;;;3.17;2.30;;;;;;;22.63;53.65;98472.66;6976478;28;20265;-79
2022/06/26 00:44:14;;;;;;;2.20;2.00;;;;;;;22.45;53.94;98481.66;6985646;28;20238;-79
2022/06/26 00:47:37;;;;;;;3.27;2.30;;;;;;;22.48;54.14;98481.88;6946714;28;20602;-78
2022/06/26 00:50:58;;;;;;;2.20;2.10;;;;;;;22.78;53.15;98494.53;6947502;28;20246;-78
2022/06/26 00:54:21;;;;;;;2.33;2.00;;;;;;;23.13;51.78;98505.94;6946213;28;20255;-79
2022/06/26 00:57:42;;;;;;;2.40;2.20;;;;;;;22.81;52.86;98535.16;6946895;28;20197;-79
2022/06/26 01:01:04;;;;;;;2.90;1.93;;;;;;;21.88;55.18;98525.44;6947543;28;20209;-78
2022/06/26 01:04:27;;;;;;;3.07;2.33;;;;;;;21.94;55.13;98522.41;6946912;28;20250;-78
2022/06/26 01:07:49;;;;;;;4.33;2.30;;;;;;;21.95;55.32;98547.94;6951987;28;20301;-79
2022/06/26 01:11:18;;;;;;;3.07;2.53;;;;;;;21.82;56.45;98541.13;6953355;28;20214;-79
2022/06/26 01:14:40;;;;;;;3.30;2.40;;;;;;;22.67;54.49;98554.25;6946832;28;20207;-78
2022/06/26 01:18:01;;;;;;;4.87;2.73;;;;;;;22.70;53.45;98547.34;6952676;28;20711;-79
2022/06/26 01:21:25;;;;;;;3.10;2.37;;;;;;;22.87;53.51;98536.75;6955023;28;20233;-79
2022/06/26 01:24:48;;;;;;;2.97;2.43;;;;;;;23.09;52.53;98542.56;6951794;28;20236;-79
2022/06/26 01:28:10;;;;;;;2.73;2.53;;;;;;;23.17;52.30;98534.53;6945645;28;20210;-79
2022/06/26 01:31:34;;;;;;;2.50;2.30;;;;;;;22.83;53.17;98544.75;6946675;28;20743;-79
2022/06/26 01:34:55;;;;;;;2.57;2.37;;;;;;;22.64;54.13;98546.59;6951148;28;20223;-78
2022/06/26 01:38:20;;;;;;;2.73;2.50;;;;;;;22.97;53.00;98531.16;6950589;28;20200;-79
2022/06/26 01:41:43;;;;;;;3.13;2.30;;;;;;;23.26;52.51;98541.00;6951214;28;20656;-79
2022/06/26 01:45:05;;;;;;;3.30;2.13;;;;;;;23.29;51.99;98517.59;6950931;28;20239;-79
2022/06/26 01:48:28;;;;;;;2.33;2.03;;;;;;;23.16;52.44;98521.03;6951367;28;20213;-79
2022/06/26 01:51:50;;;;;;;3.73;2.57;;;;;;;23.01;52.59;98515.72;6950926;28;20334;-78
2022/06/26 01:55:11;;;;;;;2.97;2.20;;;;;;;22.43;54.44;98479.19;6949660;28;20269;-78
2022/06/26 01:58:35;;;;;;;2.90;2.30;;;;;;;22.67;54.12;98495.72;6950494;28;20721;-78
2022/06/26 02:01:57;;;;;;;2.60;2.40;;;;;;;22.96;53.57;98499.25;6950557;28;20371;-79
2022/06/26 02:05:18;;;;;;;2.50;2.30;;;;;;;22.81;53.78;98502.16;6950467;28;20211;-79
2022/06/26 02:08:40;;;;;;;2.90;2.40;;;;;;;22.28;55.73;98486.72;6949792;28;20215;-79
2022/06/26 02:15:42;;;;;;;2.67;2.43;;;;;;;21.67;57.71;98532.19;6950491;28;20208;-78
2022/06/26 02:19:03;;;;;;;2.53;2.30;;;;;;;22.24;56.43;98527.66;6949371;28;20264;-79
2022/06/26 02:22:25;;;;;;;2.87;2.53;;;;;;;22.41;55.61;98535.47;6950463;28;20261;-79
2022/06/26 02:25:46;;;;;;;5.83;2.80;;;;;;;22.06;55.94;98541.28;6950293;28;20211;-79
2022/06/26 02:29:08;;;;;;;3.47;2.30;;;;;;;23.15;53.26;98530.41;6949204;28;20272;-79
2022/06/26 02:32:31;;;;;;;2.90;2.30;;;;;;;23.19;52.76;98523.25;6954983;28;20961;-79
2022/06/26 02:35:54;;;;;;;3.27;2.60;;;;;;;22.56;54.79;98536.22;6950301;28;20744;-79
2022/06/26 02:39:16;;;;;;;2.10;2.00;;;;;;;22.75;54.95;98561.88;6950174;28;20290;-79
2022/06/26 02:42:38;;;;;;;3.57;2.23;;;;;;;22.96;53.67;98546.00;6949266;28;20727;-78
2022/06/26 02:45:59;;;;;;;2.40;2.20;;;;;;;23.12;53.69;98553.81;6972849;28;20184;-79
2022/06/26 02:49:22;;;;;;;4.20;2.20;;;;;;;22.97;54.30;98553.16;6948819;28;20210;-79
2022/06/26 02:52:45;;;;;;;2.87;2.37;;;;;;;23.38;53.72;98560.72;6948774;28;20266;-79
2022/06/26 02:56:07;;;;;;;2.53;2.33;;;;;;;23.20;52.93;98546.88;6949871;28;20216;-79
2022/06/26 02:59:28;;;;;;;6.27;2.20;;;;;;;23.33;53.53;98549.75;6949508;28;20587;-79
2022/06/26 03:02:50;;;;;;;3.20;1.80;;;;;;;22.90;54.60;98539.72;6950262;28;20227;-79
2022/06/26 03:06:13;;;;;;;2.87;2.13;;;;;;;23.31;53.30;98549.22;6950597;28;20205;-78
2022/06/26 03:09:35;;;;;;;6.50;2.40;;;;;;;23.16;53.74;98534.78;6949530;28;20210;-79
2022/06/26 03:12:56;;;;;;;3.13;2.30;;;;;;;22.98;55.12;98544.63;6950559;28;20257;-79
2022/06/26 03:16:18;;;;;;;2.40;2.20;;;;;;;22.92;54.48;98542.19;6950748;28;20240;-78
2022/06/26 03:19:39;;;;;;;3.83;2.30;;;;;;;23.19;53.82;98542.50;6949278;28;20220;-79
2022/06/26 03:23:02;;;;;;;2.20;2.10;;;;;;;23.19;53.35;98546.03;6950494;28;20231;-78
2022/06/26 03:26:24;;;;;;;3.50;2.33;;;;;;;23.04;54.10;98539.88;6950199;28;20222;-79
2022/06/26 03:29:45;;;;;;;2.47;2.27;;;;;;;23.21;54.31;98554.84;6949413;28;20289;-79
2022/06/26 03:33:12;;;;;;;2.40;2.20;;;;;;;23.04;53.71;98491.19;6950304;28;20297;-79
2022/06/26 03:36:34;;;;;;;3.37;2.43;;;;;;;23.41;53.12;98529.00;6950426;28;20218;-79
2022/06/26 03:39:57;;;;;;;2.10;1.90;;;;;;;22.91;54.62;98513.91;6950066;28;20258;-79
2022/06/26 03:43:19;;;;;;;2.80;2.50;;;;;;;22.98;55.38;98524.53;6950640;28;20239;-79
2022/06/26 03:46:40;;;;;;;2.33;2.20;;;;;;;23.18;54.41;98521.59;6950366;28;20203;-79
2022/06/26 03:50:02;;;;;;;2.33;2.13;;;;;;;23.54;53.64;98537.38;6949147;28;20244;-79
2022/06/26 03:53:24;;;;;;;2.97;2.67;;;;;;;22.76;55.61;98532.44;6950058;28;20234;-79
2022/06/26 03:56:47;;;;;;;2.43;2.00;;;;;;;22.74;56.03;98523.69;6948295;28;20209;-79
2022/06/26 04:00:09;;;;;;;2.37;2.27;;;;;;;23.21;54.32;98523.75;6948957;28;20325;-78
2022/06/26 04:03:31;;;;;;;2.60;2.30;;;;;;;23.34;53.98;98537.63;6948050;28;20231;-78
2022/06/26 04:06:53;;;;;;;2.33;2.13;;;;;;;23.14;54.55;98548.00;6947646;28;20231;-79
2022/06/26 04:10:15;;;;;;;2.17;2.07;;;;;;;22.68;55.72;98539.41;6952344;28;20221;-78
2022/06/26 04:13:37;;;;;;;2.53;2.33;;;;;;;22.87;56.05;98564.25;6976117;28;20322;-78
2022/06/26 04:16:59;;;;;;;2.70;2.50;;;;;;;22.96;54.96;98541.31;6975475;28;20202;-79
2022/06/26 04:20:21;;;;;;;2.30;2.10;;;;;;;23.34;54.38;98554.13;6975811;28;20252;-79
2022/06/26 04:23:42;;;;;;;4.63;2.20;;;;;;;23.55;54.14;98569.28;6975845;28;20231;-78
2022/06/26 04:27:05;;;;;;;2.50;2.20;;;;;;;23.29;55.00;98558.88;6975490;28;20209;-79
2022/06/26 04:30:28;;;;;;;3.03;2.33;;;;;;;23.29;54.55;98556.13;6974907;28;20199;-79
2022/06/26 04:33:49;;;;;;;3.70;2.30;;;;;;;23.49;54.09;98555.88;6975679;28;20256;-78
2022/06/26 04:37:11;;;;;;;2.60;2.40;;;;;;;23.46;53.88;98568.31;6981534;28;20210;-79
2022/06/26 04:40:33;;;;;;;2.80;2.40;;;;;;;23.61;53.95;98561.78;6975382;28;20273;-78
2022/06/26 04:43:54;;;;;;;2.60;2.40;;;;;;;23.59;54.08;98561.28;6975968;28;20240;-78
2022/06/26 04:47:17;;;;;;;4.23;2.40;;;;;;;23.80;53.75;98559.88;6990057;28;20190;-79
2022/06/26 04:50:39;;;;;;;3.47;2.20;;;;;;;24.09;52.60;98547.66;6977538;28;20222;-78
2022/06/26 04:54:00;;;;;;;3.03;2.40;;;;;;;24.22;52.50;98552.41;6974315;28;20226;-79
2022/06/26 04:57:22;;;;;;;2.80;2.17;;;;;;;24.42;52.18;98549.31;6975717;28;20324;-79
2022/06/26 05:00:43;;;;;;;2.50;2.30;;;;;;;24.36;52.62;98556.03;6975257;28;20209;-79
2022/06/26 05:04:06;;;;;;;2.90;2.23;;;;;;;24.38;52.66;98556.56;6975483;28;20260;-78
2022/06/26 05:07:28;;;;;;;3.30;2.40;;;;;;;24.06;53.48;98548.25;6979828;28;20607;-79
2022/06/26 05:10:50;;;;;;;2.73;2.50;;;;;;;24.01;53.14;98518.00;6983902;28;20215;-79
2022/06/26 05:14:11;;;;;;;2.67;2.00;;;;;;;24.27;53.54;98540.47;6983852;28;20556;-79
2022/06/26 05:17:33;;;;;;;4.27;2.40;;;;;;;23.99;53.71;98525.75;6983270;28;20270;-80
2022/06/26 05:20:56;;;;;;;4.83;2.20;;;;;;;24.61;52.42;98544.63;6983977;28;20266;-78
2022/06/26 05:24:18;;;;;;;3.10;2.20;;;;;;;24.73;52.58;98539.44;6984019;28;20257;-79
2022/06/26 05:27:39;;;;;;;3.30;2.40;;;;;;;24.90;51.62;98542.44;6983541;28;20674;-79
2022/06/26 05:31:01;;;;;;;2.60;2.40;;;;;;;24.93;51.87;98566.69;6984054;28;20209;-78
2022/06/26 05:34:22;;;;;;;2.50;2.30;;;;;;;24.36;52.89;98563.50;6984023;28;20232;-79
2022/06/26 05:37:45;;;;;;;2.70;2.40;;;;;;;24.68;52.70;98560.78;6988172;28;20351;-79
2022/06/26 05:41:07;;;;;;;3.73;2.47;;;;;;;25.00;51.65;98580.88;6984554;28;20674;-79
2022/06/26 05:44:29;;;;;;;2.60;2.40;;;;;;;25.06;51.67;98585.19;6984923;28;20823;-79
2022/06/26 05:47:51;;;;;;;6.30;2.33;;;;;;;25.38;50.96;98585.19;6986092;28;20208;-80
2022/06/26 05:51:14;;;;;;;3.27;2.50;;;;;;;25.40;50.84;98582.94;6986197;28;20206;-79
2022/06/26 05:54:37;;;;;;;2.93;2.50;;;;;;;25.05;51.43;98571.69;6983479;28;20268;-79
2022/06/26 05:58:00;;;;;;;3.67;2.30;;;;;;;25.36;51.17;98568.09;6982431;28;20202;-79
2022/06/26 06:01:22;;;;;;;2.47;2.30;;;;;;;25.15;50.26;98599.13;6979286;28;20380;-79
2022/06/26 06:04:43;;;;;;;3.17;2.50;;;;;;;24.84;50.77;98579.50;6984197;28;20694;-79
2022/06/26 06:08:05;;;;;;;2.50;2.30;;;;;;;25.11;50.42;98606.34;6983616;28;20206;-79
2022/06/26 06:11:28;;;;;;;2.20;2.07;;;;;;;25.40;50.32;98607.78;6984043;28;20217;-79
2022/06/26 06:14:50;;;;;;;2.60;2.40;;;;;;;25.56;49.27;98588.97;6983625;28;20226;-79
2022/06/26 06:18:12;;;;;;;4.30;2.17;;;;;;;25.75;49.53;98603.47;6981430;28;20203;-79
2022/06/26 06:21:34;;;;;;;2.50;2.30;;;;;;;25.64;48.90;98602.88;6986108;28;20230;-79
2022/06/26 06:24:56;;;;;;;2.70;2.30;;;;;;;25.50;48.75;98615.88;6986632;28;20205;-79
2022/06/26 06:28:20;;;;;;;2.40;2.20;;;;;;;25.85;48.87;98614.31;6978464;28;20205;-79
2022/06/26 06:31:41;;;;;;;2.57;2.10;;;;;;;25.94;48.41;98627.13;6982807;28;20227;-78
2022/06/26 06:35:03;;;;;;;2.30;2.10;;;;;;;26.02;47.20;98618.09;6983040;28;20312;-80
2022/06/26 06:38:26;;;;;;;3.30;2.60;;;;;;;26.05;47.83;98613.91;6981229;28;20199;-79
2022/06/26 06:41:47;;;;;;;2.40;2.20;;;;;;;26.20;47.69;98617.16;6982917;28;20229;-79
2022/06/26 06:45:11;;;;;;;3.60;2.30;;;;;;;26.54;47.32;98614.72;6979280;28;20718;-79
2022/06/26 06:48:34;;;;;;;3.53;2.33;;;;;;;27.06;45.37;98611.22;6996182;28;20223;-80
2022/06/26 06:51:55;;;;;;;2.47;2.23;;;;;;;27.03;45.12;98595.25;6986509;28;20295;-79
2022/06/26 06:55:17;;;;;;;2.20;2.00;;;;;;;27.96;45.04;98597.66;6973666;28;20685;-79
2022/06/26 06:58:38;;;;;;;2.40;2.20;;;;;;;28.05;43.89;98604.03;6949831;28;20184;-79
2022/06/26 07:02:01;;;;;;;3.13;2.43;;;;;;;28.09;42.94;98612.53;6952046;28;20227;-79
2022/06/26 07:05:23;;;;;;;2.10;2.00;;;;;;;27.79;43.01;98594.03;6977985;28;20293;-79
2022/06/26 07:08:44;;;;;;;2.23;2.10;;;;;;;29.18;39.80;98599.81;6977492;28;20593;-79
2022/06/26 07:12:07;;;;;;;2.20;2.10;;;;;;;29.37;38.98;98610.56;6949866;28;20227;-79
2022/06/26 07:15:28;;;;;;;2.13;1.90;;;;;;;28.78;39.11;98600.38;6948644;28;20278;-79
2022/06/26 07:18:51;;;;;;;2.40;2.20;;;;;;;28.96;39.11;98618.66;6947454;28;20359;-79
2022/06/26 07:22:13;;;;;;;2.00;1.90;;;;;;;28.23;40.35;98610.41;6950064;28;20225;-79
2022/06/26 07:25:34;;;;;;;3.73;1.97;;;;;;;29.30;39.72;98616.63;6949708;28;20215;-78
2022/06/26 07:28:56;;;;;;;2.27;2.00;;;;;;;28.92;39.08;98596.28;6949934;28;20301;-79
2022/06/26 07:32:18;;;;;;;1.90;1.80;;;;;;;28.06;40.11;98588.19;6950289;28;20231;-79
2022/06/26 07:35:40;;;;;;;1.83;1.73;;;;;;;28.83;37.67;98587.13;6966432;28;20693;-79
2022/06/26 07:39:02;;;;;;;2.73;1.93;;;;;;;29.71;37.53;98610.47;6976977;28;20204;-79
2022/06/26 07:42:24;;;;;;;2.30;1.90;;;;;;;30.33;36.06;98601.13;6978167;28;20269;-79
2022/06/26 07:45:45;;;;;;;2.43;1.77;;;;;;;30.27;36.03;98615.56;6977625;28;20221;-79
2022/06/26 07:49:07;;;;;;;2.90;1.60;;;;;;;30.31;36.10;98617.34;6977420;28;20585;-79
2022/06/26 07:52:30;;;;;;;3.20;1.70;;;;;;;30.30;36.74;98603.78;6978048;28;20222;-79
2022/06/26 07:55:52;;;;;;;1.60;1.50;;;;;;;30.38;36.25;98625.16;6976161;28;20708;-80
2022/06/26 07:59:14;;;;;;;1.83;1.73;;;;;;;31.53;33.89;98606.41;6975780;28;20193;-79
2022/06/26 08:02:35;;;;;;;1.93;1.70;;;;;;;31.23;35.11;98618.88;6976668;28;20260;-79
2022/06/26 08:05:57;;;;;;;1.87;1.60;;;;;;;31.36;34.41;98610.22;6977052;28;20222;-80
2022/06/26 08:09:20;;;;;;;1.70;1.60;;;;;;;31.21;35.30;98613.69;6978072;28;20232;-79
2022/06/26 08:12:42;;;;;;;2.57;1.67;;;;;;;30.60;34.73;98603.38;6977109;28;20298;-79
2022/06/26 08:16:03;;;;;;;1.60;1.50;;;;;;;31.43;34.88;98595.72;6976760;28;20233;-79
2022/06/26 08:19:25;;;;;;;1.93;1.80;;;;;;;31.45;34.21;98588.66;6977207;28;20240;-80
2022/06/26 08:22:46;;;;;;;1.43;1.37;;;;;;;30.69;34.73;98587.44;6977146;28;20285;-80
2022/06/26 08:26:10;;;;;;;1.67;1.57;;;;;;;30.58;35.78;98596.50;6977039;28;20609;-79
2022/06/26 08:29:31;;;;;;;1.50;1.40;;;;;;;31.21;33.99;98576.63;6976662;28;20214;-80
2022/06/26 08:32:56;;;;;;;1.40;1.30;;;;;;;31.29;33.10;98568.16;6976192;28;20235;-79
2022/06/26 08:36:18;;;;;;;1.50;1.40;;;;;;;30.56;34.75;98588.53;6977085;28;20627;-79
2022/06/26 08:39:39;;;;;;;1.60;1.50;;;;;;;31.18;34.48;98596.78;6976148;28;20217;-79
2022/06/26 08:43:03;;;;;;;1.40;1.30;;;;;;;31.07;34.38;98590.84;6978041;28;20292;-79
2022/06/26 08:46:25;;;;;;;1.53;1.33;;;;;;;31.60;33.44;98604.69;6976427;28;20222;-79
2022/06/26 08:49:46;;;;;;;1.77;1.67;;;;;;;31.88;32.63;98594.50;6983757;28;20210;-80
2022/06/26 08:53:08;;;;;;;2.13;1.20;;;;;;;31.22;32.96;98617.25;6993577;28;20252;-80
2022/06/26 08:56:30;;;;;;;1.23;1.20;;;;;;;30.28;34.59;98612.47;6975870;28;20737;-79
2022/06/26 08:59:53;;;;;;;2.23;1.23;;;;;;;31.40;33.85;98608.38;6975398;28;20201;-79
2022/06/26 09:03:16;;;;;;;1.30;1.20;;;;;;;31.10;33.79;98594.91;6976389;28;20360;-80
2022/06/26 09:06:38;;;;;;;1.33;1.30;;;;;;;32.19;32.56;98603.09;6976099;28;20209;-79
2022/06/26 09:10:10;;;;;;;1.40;1.30;;;;;;;31.78;33.33;98605.31;6972542;28;20199;-79
2022/06/26 09:13:37;;;;;;;1.30;1.17;;;;;;;32.10;32.50;98604.38;6949009;28;20234;-78
2022/06/26 09:17:01;;;;;;;3.07;1.20;;;;;;;31.33;34.06;98605.34;6948786;28;20222;-79
2022/06/26 09:20:22;;;;;;;2.50;1.23;;;;;;;32.23;32.83;98603.19;6949687;28;20207;-79
2022/06/26 09:23:53;;;;;;;3.13;1.57;;;;;;;30.81;33.93;98600.59;6958630;28;20226;-80
2022/06/26 09:27:15;;;;;;;2.60;1.30;;;;;;;31.48;33.85;98610.25;6976955;28;20315;-80
2022/06/26 09:30:51;;;;;;;2.73;1.20;;;;;;;30.29;34.91;98614.09;6978290;28;20206;-80
2022/06/26 09:34:22;;;;;;;1.60;1.43;;;;;;;31.29;34.46;98578.50;6986721;28;20252;-80
2022/06/26 09:37:44;;;;;;;1.90;1.50;;;;;;;32.33;32.48;98589.63;6957188;28;20221;-80
2022/06/26 09:41:07;;;;;;;1.50;1.40;;;;;;;31.31;33.42;98567.84;6958567;28;20213;-80
2022/06/26 09:44:29;;;;;;;1.20;1.10;;;;;;;31.99;32.52;98587.31;6959234;28;20750;-80
2022/06/26 09:47:52;;;;;;;1.37;1.27;;;;;;;31.71;33.70;98561.25;6957960;28;20206;-80
2022/06/26 09:51:15;;;;;;;1.40;1.30;;;;;;;32.82;31.97;98591.13;6974715;28;20199;-79
2022/06/26 09:54:37;;;;;;;1.00;1.00;;;;;;;32.76;32.50;98592.53;6988798;28;20286;-80
2022/06/26 09:57:58;;;;;;;1.97;1.10;;;;;;;32.18;32.73;98576.34;7003370;28;20227;-80
2022/06/26 10:08:43;;;;;;;5.30;3.73;;;;;;;33.21;31.61;98583.84;6983637;28;20199;-80
2022/06/26 10:12:06;;;;;;;1.43;1.33;;;;;;;32.73;31.49;98590.41;6983940;28;20229;-80
2022/06/26 10:15:30;;;;;;;2.60;1.60;;;;;;;33.53;30.79;98591.94;6984180;28;20260;-80
2022/06/26 10:19:07;;;;;;;0.97;0.97;;;;;;;33.23;30.70;98575.91;6983934;28;20281;-80
2022/06/26 10:22:38;;;;;;;1.70;1.30;;;;;;;33.66;29.97;98571.09;6984804;28;20226;-80
2022/06/26 10:26:11;;;;;;;1.10;1.00;;;;;;;33.22;31.52;98554.72;6984292;28;20252;-80
2022/06/26 10:29:36;;;;;;;1.13;1.13;;;;;;;33.14;31.70;98581.66;6984476;28;20254;-80
2022/06/26 10:33:08;;;;;;;1.07;1.07;;;;;;;31.93;32.39;98559.97;6983887;28;20225;-80
2022/06/26 10:36:29;;;;;;;1.17;1.07;;;;;;;33.64;30.91;98575.41;6983123;28;20233;-80
2022/06/26 10:39:53;;;;;;;2.33;1.10;;;;;;;33.94;30.13;98585.00;6984206;28;20256;-80
2022/06/26 10:43:16;;;;;;;1.13;1.07;;;;;;;33.41;30.47;98554.84;6985617;28;20319;-81
2022/06/26 10:46:40;;;;;;;1.40;1.30;;;;;;;34.15;30.21;98566.75;6985864;28;20292;-80
2022/06/26 10:50:02;;;;;;;1.20;1.20;;;;;;;34.02;29.98;98539.22;6986399;28;20215;-80
2022/06/26 10:53:25;;;;;;;0.97;0.97;;;;;;;34.57;29.31;98567.72;6986473;28;20223;-80
2022/06/26 10:56:47;;;;;;;1.10;1.10;;;;;;;34.15;29.89;98555.53;6984310;28;20304;-80
2022/06/26 11:00:12;;;;;;;1.30;1.20;;;;;;;33.62;29.76;98563.78;6986417;28;20198;-80
2022/06/26 11:03:35;;;;;;;1.43;1.03;;;;;;;33.95;29.25;98544.66;6986240;28;20231;-80
2022/06/26 11:06:57;;;;;;;2.13;1.17;;;;;;;33.92;30.08;98560.19;6985731;28;20605;-80
2022/06/26 11:10:20;;;;;;;1.00;1.00;;;;;;;33.57;29.56;98559.28;6986494;28;20202;-80
2022/06/26 11:13:49;;;;;;;1.23;1.10;;;;;;;33.88;29.17;98522.91;6981846;28;20320;-80
2022/06/26 11:17:14;;;;;;;1.17;1.17;;;;;;;34.82;27.44;98545.84;6987245;28;20225;-80
2022/06/26 11:20:50;;;;;;;1.03;1.03;;;;;;;34.16;29.98;98536.75;6986621;28;20214;-80
2022/06/26 11:24:12;;;;;;;1.00;1.00;;;;;;;34.39;28.01;98546.91;6988854;28;20303;-81
2022/06/26 11:27:34;;;;;;;0.90;0.90;;;;;;;34.42;29.00;98534.19;6988290;28;20595;-80
2022/06/26 11:30:56;;;;;;;0.90;0.90;;;;;;;33.99;28.75;98534.34;6988498;28;20214;-80
2022/06/26 11:34:20;;;;;;;0.90;0.90;;;;;;;34.17;28.63;98529.97;6996932;28;20222;-81
2022/06/26 11:37:42;;;;;;;1.00;1.00;;;;;;;33.74;29.73;98532.91;6999663;28;20221;-80
2022/06/26 11:41:05;;;;;;;1.40;1.30;;;;;;;33.32;30.17;98526.25;6990290;28;20284;-80
2022/06/26 11:44:27;;;;;;;1.23;1.17;;;;;;;34.20;29.69;98529.25;6996788;28;20194;-81
2022/06/26 11:47:49;;;;;;;1.00;1.00;;;;;;;33.61;29.91;98501.44;6999232;28;20222;-81
2022/06/26 11:51:13;;;;;;;0.97;0.97;;;;;;;32.25;31.38;98523.56;6999483;28;20210;-80
2022/06/26 11:54:35;;;;;;;10.27;7.37;;;;;;;33.27;29.88;98501.38;6981511;28;20285;-81
2022/06/26 11:57:56;;;;;;;59.63;51.87;;;;;;;34.70;28.62;98512.34;6982441;28;20198;-81
2022/06/26 12:01:19;;;;;;;50.47;39.37;;;;;;;35.12;27.84;98516.81;6983390;28;20198;-83
2022/06/26 12:04:41;;;;;;;21.43;19.13;;;;;;;35.36;27.67;98510.06;6981764;28;20199;-81
2022/06/26 12:08:04;;;;;;;9.83;9.00;;;;;;;34.92;27.43;98504.03;6980217;28;20217;-83
2022/06/26 12:11:26;;;;;;;1.60;1.50;;;;;;;33.51;29.12;98501.19;6982627;28;20705;-79
2022/06/26 12:14:50;;;;;;;1.40;1.30;;;;;;;33.42;30.00;98506.97;6983013;28;20376;-79
2022/06/26 12:18:12;;;;;;;1.20;1.10;;;;;;;34.49;28.10;98481.13;6981231;28;20201;-79
2022/06/26 12:21:34;;;;;;;1.23;1.17;;;;;;;34.57;28.93;98497.69;6983235;28;20584;-80
2022/06/26 12:24:57;;;;;;;1.40;1.30;;;;;;;35.19;28.15;98493.72;6980815;28;20236;-80
2022/06/26 12:28:22;;;;;;;1.20;1.10;;;;;;;34.56;28.74;98496.06;6979516;28;20206;-80
2022/06/26 12:31:44;;;;;;;2.03;1.17;;;;;;;35.25;27.81;98472.63;6974309;28;20285;-79
2022/06/26 12:35:06;;;;;;;1.00;1.00;;;;;;;35.32;27.45;98487.53;6979769;28;20230;-79
2022/06/26 12:38:29;;;;;;;1.30;1.20;;;;;;;34.64;28.22;98489.44;6981257;28;20289;-82
2022/06/26 12:41:52;;;;;;;1.63;1.17;;;;;;;35.10;28.06;98482.75;6982130;28;20250;-82
2022/06/26 12:45:13;;;;;;;1.10;1.10;;;;;;;35.18;27.72;98434.00;6980239;28;20221;-81
2022/06/26 12:48:35;;;;;;;1.27;1.17;;;;;;;35.58;27.41;98486.78;6980777;28;20202;-80
2022/06/26 12:51:57;;;;;;;1.03;1.03;;;;;;;34.24;29.02;98437.75;6984206;28;20219;-82
2022/06/26 12:55:18;;;;;;;1.30;1.10;;;;;;;34.07;29.02;98466.19;6977743;28;20233;-84
2022/06/26 12:58:41;;;;;;;1.40;1.30;;;;;;;34.94;28.50;98476.44;6982134;28;20210;-83
2022/06/26 13:02:03;;;;;;;1.37;1.20;;;;;;;35.19;28.47;98472.06;6995866;28;20226;-82
2022/06/26 13:05:25;;;;;;;1.27;1.10;;;;;;;34.45;28.78;98471.81;6983051;28;20230;-83
2022/06/26 13:08:46;;;;;;;1.10;1.10;;;;;;;34.57;28.30;98477.25;6980895;28;20202;-82
2022/06/26 13:12:09;;;;;;;3.23;1.30;;;;;;;34.63;28.25;98429.00;6970941;28;20284;-82
2022/06/26 13:15:32;;;;;;;1.93;1.30;;;;;;;34.59;29.41;98470.13;6973891;28;20780;-83
2022/06/26 13:18:53;;;;;;;3.00;1.10;;;;;;;34.14;30.37;98453.13;6978656;28;20659;-84
2022/06/26 13:22:15;;;;;;;1.20;1.17;;;;;;;34.97;28.56;98456.06;6979530;28;20248;-84
2022/06/26 13:25:36;;;;;;;1.23;1.00;;;;;;;33.96;29.57;98462.34;6980381;28;20234;-84
2022/06/26 13:28:58;;;;;;;1.67;1.27;;;;;;;34.49;29.21;98439.91;6981463;28;20206;-83
2022/06/26 13:32:23;;;;;;;1.40;1.30;;;;;;;34.76;28.80;98464.09;6984937;28;20214;-83
2022/06/26 13:35:45;;;;;;;1.27;1.17;;;;;;;34.29;29.02;98460.69;6985084;28;20300;-83
2022/06/26 13:39:06;;;;;;;1.00;1.00;;;;;;;33.71;29.92;98470.13;6984447;28;20213;-83
2022/06/26 13:42:28;;;;;;;1.33;1.07;;;;;;;33.59;30.69;98469.41;6984644;28;20227;-83
2022/06/26 13:45:50;;;;;;;1.33;1.23;;;;;;;34.87;29.46;98467.91;6986977;28;20205;-83
2022/06/26 13:49:13;;;;;;;1.20;1.20;;;;;;;34.34;29.46;98448.38;6984687;28;20213;-83
2022/06/26 13:52:34;;;;;;;1.13;1.13;;;;;;;34.24;29.58;98415.34;6986005;28;20249;-83
2022/06/26 13:55:56;;;;;;;1.40;1.30;;;;;;;34.25;29.31;98428.19;6984230;28;20222;-82
2022/06/26 13:59:17;;;;;;;1.50;1.20;;;;;;;34.03;29.37;98424.09;6983944;28;20217;-83
2022/06/26 14:02:39;;;;;;;1.30;1.30;;;;;;;34.72;29.21;98439.97;6957242;28;20233;-83
2022/06/26 14:06:02;;;;;;;1.20;1.20;;;;;;;34.91;28.75;98437.13;6958521;28;20229;-83
2022/06/26 14:09:24;;;;;;;1.30;1.20;;;;;;;33.88;30.63;98438.16;6961170;28;20234;-83
2022/06/26 14:12:45;;;;;;;1.20;1.10;;;;;;;34.44;29.19;98437.41;6986149;28;20226;-83
2022/06/26 14:16:07;;;;;;;1.10;1.10;;;;;;;34.84;29.37;98437.81;6983749;28;20233;-83
2022/06/26 14:19:31;;;;;;;2.77;1.20;;;;;;;34.49;30.19;98411.91;6983792;28;20206;-83
2022/06/26 14:26:34;;;;;;;1.10;1.00;;;;;;;34.15;29.87;98415.59;6975094;28;20229;-82
2022/06/26 14:29:55;;;;;;;2.50;1.10;;;;;;;34.75;29.38;98397.22;6980232;28;20202;-82
2022/06/26 14:33:17;;;;;;;1.30;1.30;;;;;;;34.07;29.89;98411.00;6985231;28;20232;-82
2022/06/26 14:36:38;;;;;;;2.27;1.40;;;;;;;34.61;29.92;98403.31;6983539;28;20281;-82
2022/06/26 14:40:03;;;;;;;2.03;1.13;;;;;;;33.93;30.25;98396.72;6982501;28;20242;-82
2022/06/26 14:43:24;;;;;;;1.63;1.23;;;;;;;33.62;31.28;98382.84;6983187;28;20307;-82
2022/06/26 14:46:46;;;;;;;2.13;1.20;;;;;;;34.56;30.02;98391.63;6982737;28;20222;-82
2022/06/26 14:50:09;;;;;;;0.90;0.90;;;;;;;34.98;28.78;98372.81;6982834;28;20663;-82
2022/06/26 14:53:31;;;;;;;1.10;1.10;;;;;;;34.74;28.73;98371.19;6985371;28;20226;-82
2022/06/26 14:56:54;;;;;;;1.60;1.50;;;;;;;34.90;28.78;98385.09;6984058;28;20718;-82
2022/06/26 15:00:16;;;;;;;1.90;1.50;;;;;;;34.92;28.99;98389.13;6985890;28;20202;-82
2022/06/26 15:03:37;;;;;;;1.57;1.03;;;;;;;35.25;28.75;98375.28;6985620;28;20222;-82
2022/06/26 15:06:59;;;;;;;2.10;1.30;;;;;;;33.81;30.71;98371.69;6986032;28;20222;-81
2022/06/26 15:10:20;;;;;;;1.43;1.37;;;;;;;34.22;30.05;98384.94;6985390;28;20198;-82
2022/06/26 15:13:45;;;;;;;2.83;1.50;;;;;;;34.69;28.86;98365.88;6983401;28;20226;-83
2022/06/26 15:17:06;;;;;;;1.37;1.27;;;;;;;34.98;29.11;98365.22;6985542;28;20214;-83
2022/06/26 15:20:28;;;;;;;1.87;1.20;;;;;;;34.86;29.33;98361.78;6983790;28;20214;-83
2022/06/26 15:23:49;;;;;;;3.37;1.60;;;;;;;34.26;30.28;98371.06;6983133;28;20244;-82
2022/06/26 15:27:11;;;;;;;1.90;1.30;;;;;;;34.79;29.16;98381.28;6984409;28;20226;-83
2022/06/26 15:30:35;;;;;;;1.40;1.30;;;;;;;33.93;29.57;98337.97;6983004;28;20202;-82
2022/06/26 15:33:57;;;;;;;1.70;1.60;;;;;;;34.86;28.79;98357.00;6983350;28;20727;-83
2022/06/26 15:37:19;;;;;;;3.07;2.17;;;;;;;34.78;29.16;98358.03;6984360;28;20233;-82
2022/06/26 15:40:41;;;;;;;1.00;1.00;;;;;;;33.95;29.87;98366.38;6969984;28;20204;-81
2022/06/26 15:44:02;;;;;;;1.20;1.10;;;;;;;34.14;29.95;98343.19;6956363;28;20235;-82
2022/06/26 15:47:25;;;;;;;2.20;1.20;;;;;;;33.45;30.92;98318.09;6954859;28;20203;-80
2022/06/26 15:50:47;;;;;;;1.40;1.27;;;;;;;33.31;31.46;98340.16;6950640;28;20348;-79
2022/06/26 15:54:08;;;;;;;3.13;1.40;;;;;;;34.13;30.29;98314.38;6954537;28;20321;-80
2022/06/26 15:57:30;;;;;;;1.50;1.40;;;;;;;34.57;29.61;98338.06;6976186;28;20280;-82
2022/06/26 16:00:52;;;;;;;2.20;1.30;;;;;;;34.63;29.56;98335.75;6978851;28;20203;-80
2022/06/26 16:04:15;;;;;;;1.43;1.33;;;;;;;33.75;30.16;98291.19;6971203;28;20242;-82
2022/06/26 16:07:37;;;;;;;1.40;1.30;;;;;;;33.49;30.92;98333.78;6955512;28;20215;-82